Terminal Aerodrome Forecast
Issued by NWS Grand Rapids, MI

Home | Current Version | Previous Version | Text Only | Print | Product List | Glossary On
Versions: 1 2 3 4 5 6 7 8 9 10 11 12 13 14 15 16 17 18 19 20
000
FTUS43 KGRR 241100 RRA
TAFGRR
TAF
KGRR 241145Z 2412/2512 23012KT 4SM -RA BR OVC006
     FM241800 24015G25KT 6SM -RA BR OVC003
     FM242200 24020G34KT 1 1/2SM -SN BR OVC003
     FM250400 26013G23KT 2SM -SHSN OVC015=

USA.gov is the U.S. government's official web portal to all federal, state and local government web resources and services.